Time;durP1;ratioP1;P1;durP2;ratioP2;P2;SDS_P1;SDS_P2;PMS_P1;PMS_P2;Temp;Humidity;BMP_temperature;BMP_pressure;BME280_temperature;BME280_humidity;BME280_pressure;Samples;Min_cycle;Max_cycle;Signal;HPM_P1;HPM_P2
2023/08/04 00:00:22;;;;;;;9.20;4.00;;;;;;;17.58;100.00;100014.77;106201;1253;71409;-69
2023/08/04 00:02:49;;;;;;;8.50;3.50;;;;;;;17.57;100.00;100014.42;106334;1253;70932;-70
2023/08/04 00:05:15;;;;;;;11.00;4.00;;;;;;;17.57;100.00;100019.46;106438;1254;62319;-70
2023/08/04 00:07:43;;;;;;;11.20;3.70;;;;;;;17.55;100.00;100026.89;106318;1256;60441;-70
2023/08/04 00:10:10;;;;;;;9.70;3.40;;;;;;;17.50;100.00;100025.87;106268;1253;72859;-69
2023/08/04 00:12:37;;;;;;;8.40;3.80;;;;;;;17.42;100.00;100027.53;106297;1253;71226;-70
2023/08/04 00:15:06;;;;;;;8.60;3.30;;;;;;;17.40;100.00;100027.10;106237;1253;71446;-70
2023/08/04 00:17:35;;;;;;;9.20;3.30;;;;;;;17.31;100.00;100040.55;106246;1253;60879;-69
2023/08/04 00:20:03;;;;;;;10.40;3.60;;;;;;;17.29;100.00;100035.48;106491;1253;60988;-70
2023/08/04 00:22:30;;;;;;;8.10;3.10;;;;;;;17.29;100.00;100034.60;108587;1253;72733;-68
2023/08/04 00:24:57;;;;;;;9.50;3.30;;;;;;;17.27;100.00;100038.70;108053;1253;70218;-70
2023/08/04 00:27:23;;;;;;;7.70;3.20;;;;;;;17.27;100.00;100042.39;108669;1252;73093;-68
2023/08/04 00:29:51;;;;;;;9.30;3.40;;;;;;;17.28;100.00;100043.21;108130;1253;63230;-68
2023/08/04 00:32:17;;;;;;;10.90;3.70;;;;;;;17.27;100.00;100046.98;106720;1253;60534;-69
2023/08/04 00:34:45;;;;;;;8.50;3.20;;;;;;;17.29;100.00;100045.66;106382;1253;74043;-70
2023/08/04 00:37:12;;;;;;;10.10;3.60;;;;;;;17.30;100.00;100050.08;106292;1253;70163;-69
2023/08/04 00:39:39;;;;;;;7.80;3.30;;;;;;;17.30;100.00;100055.27;106230;1257;72753;-71
2023/08/04 00:42:06;;;;;;;8.60;3.70;;;;;;;17.28;100.00;100060.04;107288;1253;62340;-70
2023/08/04 00:44:33;;;;;;;9.20;4.00;;;;;;;17.28;100.00;100061.94;108976;1253;59464;-67
2023/08/04 00:47:00;;;;;;;11.30;3.60;;;;;;;17.27;100.00;100065.45;107909;1256;73991;-70
2023/08/04 00:49:26;;;;;;;12.80;3.60;;;;;;;17.27;100.00;100065.77;107308;1256;71137;-70
2023/08/04 00:51:53;;;;;;;8.80;3.30;;;;;;;17.29;100.00;100068.80;108416;1253;72670;-70
2023/08/04 00:54:22;;;;;;;9.60;3.90;;;;;;;17.28;100.00;100066.42;106241;1259;60820;-69
2023/08/04 00:56:54;;;;;;;9.80;3.40;;;;;;;17.27;100.00;100067.69;106362;1257;60490;-68
2023/08/04 00:59:20;;;;;;;10.30;3.60;;;;;;;17.27;100.00;100076.80;106213;1254;72549;-69
2023/08/04 01:01:49;;;;;;;8.70;3.30;;;;;;;17.28;100.00;100079.57;106393;1252;70046;-68
2023/08/04 01:04:18;;;;;;;8.50;3.50;;;;;;;17.22;100.00;100081.80;106502;1253;72706;-70
2023/08/04 01:07:05;;;;;;;9.60;3.40;;;;;;;17.19;100.00;100087.19;106365;1253;62089;-71
2023/08/04 01:10:01;;;;;;;8.10;3.10;;;;;;;17.15;100.00;100084.36;106555;1253;60437;-70
2023/08/04 01:12:51;;;;;;;10.70;3.70;;;;;;;17.11;100.00;100084.22;105983;1253;72690;-68
2023/08/04 01:15:19;;;;;;;8.70;3.10;;;;;;;17.07;100.00;100085.80;106328;1256;71346;-71
2023/08/04 01:17:46;;;;;;;7.80;3.00;;;;;;;17.04;100.00;100088.89;106234;1253;71446;-72
2023/08/04 01:20:13;;;;;;;7.60;3.30;;;;;;;16.98;100.00;100081.88;106393;1257;60831;-71
2023/08/04 01:22:40;;;;;;;6.90;2.80;;;;;;;16.97;100.00;100083.26;106334;1253;60470;-69
2023/08/04 01:25:07;;;;;;;10.10;2.70;;;;;;;16.91;100.00;100087.89;106340;1253;74314;-68
2023/08/04 01:27:41;;;;;;;7.50;2.70;;;;;;;16.85;100.00;100086.67;106134;1258;70005;-69
2023/08/04 01:30:13;;;;;;;8.40;2.50;;;;;;;16.76;100.00;100090.13;106237;1253;71248;-69
2023/08/04 01:32:40;;;;;;;10.10;3.10;;;;;;;16.65;100.00;100080.64;106351;1257;61079;-70
2023/08/04 01:35:08;;;;;;;7.50;2.50;;;;;;;16.60;100.00;100081.69;106252;1257;60422;-71
2023/08/04 01:37:34;;;;;;;8.20;3.10;;;;;;;16.52;100.00;100082.61;106152;1256;73830;-70
2023/08/04 01:40:02;;;;;;;10.40;3.30;;;;;;;16.45;100.00;100084.09;106244;1253;71233;-72
2023/08/04 01:42:28;;;;;;;11.30;3.20;;;;;;;16.38;100.00;100082.88;106121;1253;72875;-71
2023/08/04 01:44:58;;;;;;;9.60;3.10;;;;;;;16.30;100.00;100085.21;106450;1253;60771;-69
2023/08/04 01:47:25;;;;;;;6.90;3.10;;;;;;;16.23;100.00;100086.99;106228;1253;60460;-70
2023/08/04 01:49:52;;;;;;;7.90;3.40;;;;;;;16.16;100.00;100087.30;106309;1258;72878;-70
2023/08/04 01:52:19;;;;;;;8.60;3.20;;;;;;;16.10;100.00;100094.20;107566;1253;71108;-68
2023/08/04 01:54:45;;;;;;;8.80;3.30;;;;;;;16.03;100.00;100099.94;107511;1253;72184;-70
2023/08/04 01:57:12;;;;;;;9.20;3.40;;;;;;;16.01;100.00;100106.27;107569;1253;62024;-70
2023/08/04 01:59:39;;;;;;;8.60;3.10;;;;;;;15.96;100.00;100107.35;106578;1253;60477;-69
2023/08/04 02:02:07;;;;;;;11.10;3.80;;;;;;;15.93;100.00;100109.80;107675;1256;72655;-70
2023/08/04 02:04:34;;;;;;;11.90;3.80;;;;;;;15.90;100.00;100113.39;106322;1258;69626;-70
2023/08/04 02:07:01;;;;;;;10.00;3.50;;;;;;;15.86;100.00;100117.84;106268;1254;72713;-69
2023/08/04 02:09:28;;;;;;;11.20;3.90;;;;;;;15.85;100.00;100123.89;106354;1253;60444;-69
2023/08/04 02:11:55;;;;;;;9.40;3.70;;;;;;;15.82;100.00;100130.88;106166;1253;60539;-69
2023/08/04 02:14:22;;;;;;;10.70;4.20;;;;;;;15.79;100.00;100134.27;106144;1253;73841;-71
2023/08/04 02:16:49;;;;;;;13.20;3.80;;;;;;;15.77;100.00;100142.97;106414;1253;72186;-71
2023/08/04 02:19:16;;;;;;;11.60;3.90;;;;;;;15.73;100.00;100145.52;106579;1253;71776;-71
2023/08/04 02:21:43;;;;;;;12.10;4.10;;;;;;;15.69;100.00;100149.55;106333;1253;61205;-70
2023/08/04 02:24:10;;;;;;;14.00;3.70;;;;;;;15.66;100.00;100150.16;106292;1253;60444;-70
2023/08/04 02:26:36;;;;;;;11.20;4.20;;;;;;;15.63;100.00;100154.55;106334;1253;61860;-70
2023/08/04 02:29:04;;;;;;;10.40;4.20;;;;;;;15.61;100.00;100160.98;106280;1253;70878;-70
2023/08/04 02:31:32;;;;;;;11.70;4.00;;;;;;;15.60;100.00;100164.30;106195;1252;71496;-70
2023/08/04 02:34:00;;;;;;;10.40;4.40;;;;;;;15.59;100.00;100169.45;106369;1253;62008;-70
2023/08/04 02:36:27;;;;;;;12.20;4.40;;;;;;;15.59;100.00;100168.75;106224;1259;60367;-70
2023/08/04 02:38:53;;;;;;;12.30;4.10;;;;;;;15.58;100.00;100170.93;106393;1253;72684;-70
2023/08/04 02:41:20;;;;;;;11.80;3.90;;;;;;;15.58;100.00;100176.33;106104;1253;71370;-69
2023/08/04 02:43:47;;;;;;;11.70;4.50;;;;;;;15.61;100.00;100174.28;106203;1253;71567;-71
2023/08/04 02:46:14;;;;;;;10.70;4.00;;;;;;;15.60;100.00;100171.09;106181;1257;61034;-72
2023/08/04 02:48:40;;;;;;;8.20;3.80;;;;;;;15.62;100.00;100177.46;106216;1252;60446;-70
2023/08/04 02:51:09;;;;;;;8.50;4.40;;;;;;;15.60;100.00;100174.38;106411;1253;72558;-70
2023/08/04 02:53:39;;;;;;;8.30;4.60;;;;;;;15.60;100.00;100174.04;106179;1258;70113;-71
2023/08/04 02:56:12;;;;;;;9.40;3.80;;;;;;;15.61;100.00;100175.98;106303;1257;71122;-70
2023/08/04 02:58:39;;;;;;;11.20;4.40;;;;;;;15.62;100.00;100173.77;106577;1257;61593;-72
2023/08/04 03:01:06;;;;;;;12.60;4.20;;;;;;;15.64;100.00;100181.11;106558;1256;60541;-70
2023/08/04 03:03:34;;;;;;;10.70;4.10;;;;;;;15.67;100.00;100178.41;106391;1258;72655;-71
2023/08/04 03:06:01;;;;;;;7.60;3.80;;;;;;;15.67;100.00;100177.42;106275;1253;71127;-69
2023/08/04 03:08:29;;;;;;;12.60;4.70;;;;;;;15.69;100.00;100183.29;106625;1253;72640;-70
2023/08/04 03:10:56;;;;;;;12.00;4.20;;;;;;;15.70;100.00;100187.50;106409;1256;62161;-70
2023/08/04 03:13:22;;;;;;;11.80;4.40;;;;;;;15.71;100.00;100191.73;106325;1257;60949;-69
2023/08/04 03:16:00;;;;;;;11.70;4.10;;;;;;;15.72;100.00;100191.23;106160;1256;73920;-71
2023/08/04 03:18:27;;;;;;;10.90;4.20;;;;;;;15.75;100.00;100196.88;106276;1253;71197;-70
2023/08/04 03:20:54;;;;;;;12.30;4.40;;;;;;;15.74;100.00;100197.05;106263;1253;72746;-70
2023/08/04 03:23:22;;;;;;;13.80;3.90;;;;;;;15.75;100.00;100199.84;106405;1253;60425;-69
2023/08/04 03:25:49;;;;;;;8.70;3.90;;;;;;;15.75;100.00;100203.41;106079;1253;60531;-70
2023/08/04 03:28:16;;;;;;;11.50;4.00;;;;;;;15.76;100.00;100209.52;106266;1252;72292;-70
2023/08/04 03:30:43;;;;;;;9.70;4.00;;;;;;;15.77;100.00;100207.63;106410;1253;69914;-70
2023/08/04 03:33:10;;;;;;;10.50;4.10;;;;;;;15.75;100.00;100213.05;106193;1257;73159;-70
2023/08/04 03:35:37;;;;;;;13.90;4.30;;;;;;;15.77;100.00;100217.09;106334;1258;60586;-70
2023/08/04 03:38:05;;;;;;;10.00;3.90;;;;;;;15.77;100.00;100222.23;106192;1253;60877;-70
2023/08/04 03:40:32;;;;;;;11.60;3.80;;;;;;;15.75;100.00;100227.64;106452;1253;73909;-71
2023/08/04 03:42:59;;;;;;;13.20;3.90;;;;;;;15.77;100.00;100233.34;106215;1253;68944;-70
2023/08/04 03:45:26;;;;;;;12.60;3.70;;;;;;;15.80;100.00;100235.58;106239;1253;73463;-69
2023/08/04 03:47:53;;;;;;;9.80;3.70;;;;;;;15.82;100.00;100238.69;106197;1253;62111;-69
2023/08/04 03:50:24;;;;;;;10.50;3.70;;;;;;;15.84;100.00;100241.60;106276;1253;60463;-70
2023/08/04 03:52:51;;;;;;;9.70;3.70;;;;;;;15.86;100.00;100241.03;106352;1253;73335;-70
2023/08/04 03:55:18;;;;;;;14.70;3.90;;;;;;;15.89;100.00;100244.55;106165;1253;69066;-70
2023/08/04 03:57:45;;;;;;;13.30;3.60;;;;;;;15.93;100.00;100244.48;106152;1253;72729;-70
2023/08/04 04:00:12;;;;;;;10.10;3.70;;;;;;;15.93;100.00;100244.38;106368;1256;60785;-70
2023/08/04 04:02:39;;;;;;;11.30;3.90;;;;;;;15.94;100.00;100244.45;106769;1253;60452;-70
2023/08/04 04:05:06;;;;;;;8.20;3.80;;;;;;;15.94;100.00;100243.76;106333;1257;74012;-69
2023/08/04 04:07:33;;;;;;;10.50;3.80;;;;;;;15.95;100.00;100245.60;106418;1253;71204;-70
2023/08/04 04:10:00;;;;;;;14.10;3.90;;;;;;;15.95;100.00;100249.14;106277;1253;72669;-69
2023/08/04 04:12:27;;;;;;;9.00;3.30;;;;;;;15.97;100.00;100254.17;106464;1253;61735;-70
2023/08/04 04:14:53;;;;;;;10.20;3.40;;;;;;;15.96;100.00;100255.54;106339;1253;60731;-69
2023/08/04 04:17:20;;;;;;;9.50;3.60;;;;;;;15.97;100.00;100255.63;106307;1252;72698;-70
2023/08/04 04:19:47;;;;;;;10.30;3.40;;;;;;;15.98;100.00;100257.00;106224;1257;71291;-69
2023/08/04 04:22:15;;;;;;;12.80;3.50;;;;;;;15.99;100.00;100258.81;106538;1258;72924;-70
2023/08/04 04:24:42;;;;;;;11.90;3.40;;;;;;;16.01;100.00;100260.15;106436;1256;60439;-70
2023/08/04 04:27:08;;;;;;;10.30;3.40;;;;;;;16.01;100.00;100261.47;106375;1256;60346;-69
2023/08/04 04:29:35;;;;;;;13.40;3.90;;;;;;;16.01;100.00;100265.86;106102;1256;72371;-71
2023/08/04 04:32:02;;;;;;;9.20;3.50;;;;;;;16.03;100.00;100259.63;106022;1253;69974;-69
2023/08/04 04:34:29;;;;;;;12.40;3.30;;;;;;;16.03;100.00;100262.35;106352;1257;73320;-70
2023/08/04 04:36:58;;;;;;;10.60;3.00;;;;;;;16.06;100.00;100266.98;106283;1253;63447;-69
2023/08/04 04:39:25;;;;;;;9.90;3.10;;;;;;;16.07;100.00;100270.13;106163;1256;60482;-69
2023/08/04 04:41:52;;;;;;;12.30;3.10;;;;;;;16.08;100.00;100264.16;106233;1256;72350;-69
2023/08/04 04:44:19;;;;;;;8.00;3.10;;;;;;;16.08;100.00;100264.20;106136;1256;72098;-70
2023/08/04 04:46:46;;;;;;;10.10;3.40;;;;;;;16.07;100.00;100266.38;106363;1253;71157;-71
2023/08/04 04:49:13;;;;;;;14.00;3.50;;;;;;;16.09;100.00;100269.28;106331;1253;61948;-70
2023/08/04 04:51:39;;;;;;;10.30;3.20;;;;;;;16.11;100.00;100270.55;105984;1257;238596;-70
2023/08/04 04:54:06;;;;;;;7.70;3.00;;;;;;;16.13;100.00;100271.59;106365;1253;73033;-69
2023/08/04 04:56:33;;;;;;;9.40;3.30;;;;;;;16.17;100.00;100272.88;106303;1253;70022;-70
2023/08/04 04:59:00;;;;;;;8.30;3.30;;;;;;;16.20;100.00;100268.21;106545;1253;72875;-69
2023/08/04 05:01:26;;;;;;;11.00;3.20;;;;;;;16.25;100.00;100265.49;106374;1257;60902;-70
2023/08/04 05:03:53;;;;;;;12.70;3.00;;;;;;;16.29;100.00;100268.83;106109;1253;60559;-69
2023/08/04 05:06:20;;;;;;;9.40;3.30;;;;;;;16.33;100.00;100271.98;106152;1256;72323;-69
2023/08/04 05:08:47;;;;;;;11.00;3.90;;;;;;;16.37;100.00;100274.20;106737;1253;72882;-70
2023/08/04 05:11:14;;;;;;;8.50;3.20;;;;;;;16.43;100.00;100279.30;106465;1253;70392;-70
2023/08/04 05:13:44;;;;;;;8.40;2.70;;;;;;;16.45;100.00;100278.62;106238;1253;60758;-69
2023/08/04 05:16:11;;;;;;;11.40;2.90;;;;;;;16.51;100.00;100278.63;106413;1253;60921;-70
2023/08/04 05:18:38;;;;;;;7.40;2.50;;;;;;;16.56;100.00;100280.92;106202;1253;72654;-70
2023/08/04 05:21:04;;;;;;;8.80;2.70;;;;;;;16.61;100.00;100285.98;106377;1260;71112;-70
2023/08/04 05:23:32;;;;;;;9.00;2.60;;;;;;;16.67;100.00;100289.05;106255;1252;72333;-70
2023/08/04 05:25:58;;;;;;;7.70;2.50;;;;;;;16.75;100.00;100294.34;106077;1253;61986;-69
2023/08/04 05:28:28;;;;;;;6.20;2.30;;;;;;;16.77;100.00;100297.14;106249;1253;60923;-69
2023/08/04 05:30:58;;;;;;;8.30;3.00;;;;;;;16.79;100.00;100300.80;106528;1253;72349;-71
2023/08/04 05:33:25;;;;;;;7.70;2.70;;;;;;;16.83;100.00;100302.63;106318;1254;69668;-69
2023/08/04 05:35:52;;;;;;;6.70;2.50;;;;;;;16.86;100.00;100302.29;106438;1257;72306;-69
2023/08/04 05:38:19;;;;;;;8.10;2.50;;;;;;;16.88;100.00;100305.44;106148;1253;61984;-69
2023/08/04 05:40:47;;;;;;;8.50;2.40;;;;;;;16.90;100.00;100308.25;106559;1254;60482;-69
2023/08/04 05:43:15;;;;;;;6.60;2.40;;;;;;;16.90;100.00;100309.79;106596;1256;73967;-70
2023/08/04 05:45:44;;;;;;;6.90;2.30;;;;;;;16.92;100.00;100307.81;106153;1256;71141;-68
2023/08/04 05:48:11;;;;;;;7.70;2.70;;;;;;;16.99;100.00;100306.40;106390;1256;72371;-69
2023/08/04 05:50:38;;;;;;;6.70;2.30;;;;;;;17.06;100.00;100312.58;106321;1253;62032;-70
2023/08/04 05:53:05;;;;;;;8.00;2.20;;;;;;;17.08;100.00;100315.15;106384;1257;59321;-69
2023/08/04 05:55:32;;;;;;;5.50;2.30;;;;;;;17.11;100.00;100314.15;106213;1253;73848;-68
2023/08/04 05:57:58;;;;;;;9.70;2.40;;;;;;;17.13;100.00;100317.70;106511;1256;69955;-69
2023/08/04 06:00:25;;;;;;;6.30;2.40;;;;;;;17.16;100.00;100319.01;106124;1253;72871;-69
2023/08/04 06:02:52;;;;;;;6.90;2.30;;;;;;;17.20;100.00;100315.90;106482;1253;62196;-70
2023/08/04 06:05:20;;;;;;;8.40;2.70;;;;;;;17.24;100.00;100322.80;106142;1259;60357;-69
2023/08/04 06:07:47;;;;;;;7.60;2.40;;;;;;;17.28;100.00;100329.67;106249;1256;73986;-69
2023/08/04 06:10:19;;;;;;;7.10;2.20;;;;;;;17.29;100.00;100333.29;106231;1257;71396;-69
2023/08/04 06:12:47;;;;;;;9.30;2.60;;;;;;;17.32;100.00;100332.26;106375;1253;71670;-70
2023/08/04 06:15:14;;;;;;;5.90;2.30;;;;;;;17.40;100.00;100338.50;106669;1253;60443;-68
2023/08/04 06:17:41;;;;;;;7.90;2.40;;;;;;;17.46;100.00;100339.48;106394;1253;60441;-69
2023/08/04 06:20:09;;;;;;;8.10;2.30;;;;;;;17.53;100.00;100339.28;106663;1253;72679;-69
2023/08/04 06:22:36;;;;;;;5.10;2.20;;;;;;;17.60;100.00;100339.02;106651;1253;71199;-70
2023/08/04 06:25:04;;;;;;;5.80;2.30;;;;;;;17.67;100.00;100337.80;106219;1253;71579;-70
2023/08/04 06:27:31;;;;;;;7.20;2.60;;;;;;;17.78;100.00;100336.93;106305;1258;62118;-69
2023/08/04 06:29:59;;;;;;;7.10;2.00;;;;;;;17.89;100.00;100336.39;106242;1254;60491;-68
2023/08/04 06:32:27;;;;;;;5.90;2.30;;;;;;;18.02;100.00;100340.06;106324;1258;73812;-72
2023/08/04 06:34:54;;;;;;;7.10;2.10;;;;;;;18.13;100.00;100344.34;106102;1253;70160;-69
2023/08/04 06:37:21;;;;;;;6.90;2.30;;;;;;;18.16;100.00;100345.37;106114;1253;71499;-69
2023/08/04 06:39:49;;;;;;;5.80;1.90;;;;;;;18.22;100.00;100345.83;106219;1253;60540;-70
2023/08/04 06:42:17;;;;;;;7.50;2.20;;;;;;;18.32;100.00;100344.16;106343;1253;60447;-71
2023/08/04 06:44:45;;;;;;;6.00;2.20;;;;;;;18.42;99.84;100348.80;106539;1258;72428;-69
2023/08/04 06:47:12;;;;;;;5.50;1.60;;;;;;;18.44;98.37;100353.36;106349;1257;71205;-69
2023/08/04 06:49:42;;;;;;;7.80;2.10;;;;;;;18.49;97.87;100354.96;106292;1257;72869;-69
2023/08/04 06:52:09;;;;;;;5.10;1.90;;;;;;;18.56;98.26;100358.88;106373;1259;61737;-69
2023/08/04 06:54:37;;;;;;;5.00;2.30;;;;;;;18.60;98.40;100361.05;106675;1253;60316;-70
2023/08/04 06:57:04;;;;;;;6.00;1.80;;;;;;;18.66;97.44;100363.34;106332;1257;73645;-69
2023/08/04 06:59:31;;;;;;;5.50;1.90;;;;;;;18.65;96.03;100364.01;106326;1256;70061;-72
2023/08/04 07:01:58;;;;;;;5.40;1.80;;;;;;;18.69;96.20;100364.91;107013;1253;71535;-69
2023/08/04 07:04:25;;;;;;;5.50;1.70;;;;;;;18.75;96.06;100366.04;106600;1254;61674;-70
2023/08/04 07:06:54;;;;;;;6.10;1.70;;;;;;;18.75;95.00;100366.27;106246;1256;60563;-69
2023/08/04 07:09:21;;;;;;;4.90;1.70;;;;;;;18.77;94.77;100367.70;106259;1253;72751;-69
2023/08/04 07:11:48;;;;;;;4.90;2.50;;;;;;;18.84;94.98;100369.90;106282;1258;71216;-67
2023/08/04 07:14:15;;;;;;;6.80;1.80;;;;;;;18.86;93.70;100375.98;106509;1257;72699;-68
2023/08/04 07:16:46;;;;;;;4.80;1.80;;;;;;;18.85;93.27;100375.73;106402;1256;60531;-71
2023/08/04 07:19:16;;;;;;;5.00;1.80;;;;;;;18.91;94.23;100379.63;106176;1255;60495;-69
2023/08/04 07:21:44;;;;;;;4.00;1.60;;;;;;;18.98;93.90;100382.60;106268;1257;72641;-70
2023/08/04 07:24:11;;;;;;;7.70;2.00;;;;;;;19.06;93.88;100388.52;106468;1255;71353;-69
2023/08/04 07:26:38;;;;;;;5.90;1.90;;;;;;;19.09;92.62;100395.64;106500;1255;73603;-70
2023/08/04 07:29:05;;;;;;;4.80;1.60;;;;;;;19.12;92.28;100391.33;106354;1253;62081;-72
2023/08/04 07:31:32;;;;;;;5.80;1.50;;;;;;;19.09;91.77;100398.59;106241;1255;60605;-71
2023/08/04 07:34:00;;;;;;;6.80;1.80;;;;;;;19.10;92.23;100399.52;106284;1258;72348;-72
2023/08/04 07:36:27;;;;;;;6.60;1.80;;;;;;;19.15;92.70;100402.79;106492;1254;70325;-72
2023/08/04 07:38:54;;;;;;;5.60;1.80;;;;;;;19.16;91.57;100404.70;106144;1259;71807;-71
2023/08/04 07:41:24;;;;;;;5.70;1.80;;;;;;;19.23;92.42;100410.86;106219;1253;61017;-70
2023/08/04 07:43:52;;;;;;;5.40;1.60;;;;;;;19.27;90.93;100412.27;106372;1253;60415;-71
2023/08/04 07:46:24;;;;;;;5.50;1.60;;;;;;;19.32;90.95;100408.89;106352;1259;73857;-70
2023/08/04 07:48:51;;;;;;;3.80;1.70;;;;;;;19.35;89.99;100412.81;106846;1254;71840;-69
2023/08/04 07:51:19;;;;;;;5.00;1.60;;;;;;;19.34;90.11;100415.06;108592;1257;71105;-70
2023/08/04 07:53:46;;;;;;;5.90;1.70;;;;;;;19.42;90.64;100419.55;108764;1255;60802;-70
2023/08/04 07:56:13;;;;;;;6.10;1.70;;;;;;;19.45;89.65;100419.55;107726;1253;60622;-70
2023/08/04 07:58:40;;;;;;;4.30;1.50;;;;;;;19.49;89.07;100423.34;106671;1254;72462;-70
2023/08/04 08:01:07;;;;;;;3.90;1.30;;;;;;;19.50;88.17;100428.10;106311;1254;71276;-69
2023/08/04 08:03:35;;;;;;;4.70;1.50;;;;;;;19.50;87.70;100433.21;106186;1257;70251;-69
2023/08/04 08:06:03;;;;;;;4.80;1.90;;;;;;;19.50;87.59;100434.62;106248;1254;60522;-71
2023/08/04 08:08:30;;;;;;;5.40;1.50;;;;;;;19.54;88.02;100429.41;106431;1257;60594;-70
2023/08/04 08:10:58;;;;;;;4.60;1.40;;;;;;;19.64;88.03;100432.39;106355;1256;73879;-69
2023/08/04 08:13:25;;;;;;;4.30;1.30;;;;;;;19.74;88.48;100433.95;106168;1254;71430;-68
2023/08/04 08:15:52;;;;;;;3.40;1.20;;;;;;;19.87;87.34;100433.11;108651;1254;71976;-71
2023/08/04 08:18:18;;;;;;;5.00;1.20;;;;;;;19.98;87.04;100433.87;109265;1253;61817;-71
2023/08/04 08:20:45;;;;;;;5.90;1.50;;;;;;;20.16;87.32;100434.05;109318;1254;60520;-71
2023/08/04 08:23:13;;;;;;;3.80;1.10;;;;;;;20.30;85.89;100438.64;109317;1252;73517;-70
2023/08/04 08:25:41;;;;;;;5.20;1.10;;;;;;;20.41;84.31;100440.32;109325;1253;70039;-72
2023/08/04 08:28:07;;;;;;;4.40;1.40;;;;;;;20.50;83.21;100447.95;109231;1253;72466;-70
2023/08/04 08:30:34;;;;;;;4.10;1.20;;;;;;;20.60;83.47;100447.85;108053;1251;61504;-71
2023/08/04 08:33:01;;;;;;;5.10;1.50;;;;;;;20.71;83.12;100451.61;106535;1252;60879;-72
2023/08/04 08:35:28;;;;;;;6.60;1.40;;;;;;;20.84;82.82;100448.62;107240;1256;73081;-70
2023/08/04 08:37:55;;;;;;;3.00;1.10;;;;;;;20.90;81.76;100451.39;106249;1255;71765;-70
2023/08/04 08:40:25;;;;;;;3.50;1.30;;;;;;;20.94;80.94;100454.19;106602;1254;72719;-70
2023/08/04 08:42:53;;;;;;;3.30;1.10;;;;;;;20.99;79.44;100452.38;106252;1257;62238;-71
2023/08/04 08:45:24;;;;;;;4.40;1.20;;;;;;;21.06;79.17;100459.67;106587;1259;60435;-70
2023/08/04 08:47:51;;;;;;;4.80;1.40;;;;;;;21.04;78.71;100465.11;106322;1254;72495;-70
2023/08/04 08:50:22;;;;;;;4.50;1.30;;;;;;;21.08;79.06;100461.77;106695;1256;69918;-70
2023/08/04 08:53:02;;;;;;;6.40;1.40;;;;;;;21.22;79.49;100467.86;106498;1255;70813;-69
2023/08/04 08:55:30;;;;;;;2.90;1.10;;;;;;;21.35;77.88;100464.30;106329;1254;61998;-69
2023/08/04 08:57:56;;;;;;;3.50;1.00;;;;;;;21.41;76.58;100469.61;106253;1254;60881;-70
2023/08/04 09:00:23;;;;;;;3.80;1.20;;;;;;;21.45;76.36;100465.05;106496;1254;72065;-68
2023/08/04 09:02:50;;;;;;;3.30;1.20;;;;;;;21.57;76.55;100464.41;106257;1258;71311;-70
2023/08/04 09:05:17;;;;;;;4.50;1.10;;;;;;;21.63;74.97;100468.80;106377;1254;71324;-69
2023/08/04 09:07:44;;;;;;;4.70;1.40;;;;;;;21.72;75.93;100468.30;106319;1257;62134;-70
2023/08/04 09:10:11;;;;;;;4.90;1.10;;;;;;;21.71;71.39;100473.25;106526;1256;60722;-68
2023/08/04 09:12:46;;;;;;;4.30;1.10;;;;;;;21.58;65.87;100475.93;106162;1254;72100;-69
2023/08/04 09:15:13;;;;;;;2.70;1.00;;;;;;;21.65;66.21;100475.61;106371;1253;69735;-69
2023/08/04 09:17:41;;;;;;;3.30;1.10;;;;;;;21.58;65.65;100478.35;106359;1256;72306;-68
2023/08/04 09:20:10;;;;;;;3.10;1.10;;;;;;;21.50;65.27;100485.55;106535;1257;60486;-71
2023/08/04 09:22:41;;;;;;;3.00;1.10;;;;;;;21.43;65.39;100482.13;106708;1254;60454;-70
2023/08/04 09:25:08;;;;;;;3.50;1.20;;;;;;;21.44;65.23;100482.41;106440;1257;73870;-70
2023/08/04 09:27:41;;;;;;;5.10;1.20;;;;;;;21.60;65.87;100477.50;106397;1254;70044;-69
2023/08/04 09:30:09;;;;;;;3.10;1.10;;;;;;;21.80;64.79;100478.31;106753;1257;71564;-70
2023/08/04 09:32:45;;;;;;;2.10;0.80;;;;;;;21.91;63.83;100480.48;106444;1253;60621;-70
2023/08/04 09:35:12;;;;;;;2.60;0.80;;;;;;;22.00;61.99;100480.98;106442;1254;60551;-68
2023/08/04 09:37:40;;;;;;;2.60;1.10;;;;;;;22.08;62.76;100481.05;106413;1253;73842;-71
2023/08/04 09:40:13;;;;;;;4.20;0.90;;;;;;;22.23;62.79;100479.85;106289;1254;69813;-69
2023/08/04 09:42:42;;;;;;;2.40;0.90;;;;;;;22.22;61.20;100481.25;106457;1253;71795;-69
2023/08/04 09:45:13;;;;;;;2.00;0.80;;;;;;;22.16;60.68;100486.52;106863;1256;60654;-71
2023/08/04 09:47:39;;;;;;;1.70;0.60;;;;;;;22.08;59.95;100483.27;106835;1253;60781;-71
2023/08/04 09:50:10;;;;;;;2.20;0.60;;;;;;;22.30;58.30;100484.19;106755;1254;73572;-70
2023/08/04 09:52:37;;;;;;;2.00;0.60;;;;;;;22.47;57.35;100484.27;106305;1257;69634;-69
2023/08/04 09:55:08;;;;;;;2.60;0.70;;;;;;;22.47;56.52;100483.52;106467;1256;72749;-71
2023/08/04 09:57:36;;;;;;;2.10;0.90;;;;;;;22.51;57.46;100482.79;106569;1254;61260;-72
2023/08/04 10:00:04;;;;;;;2.40;0.90;;;;;;;22.51;57.80;100478.63;106081;1252;61245;-71
2023/08/04 10:02:31;;;;;;;2.70;0.90;;;;;;;22.61;58.11;100476.41;106469;1257;74165;-70
2023/08/04 10:04:59;;;;;;;3.10;0.70;;;;;;;22.70;58.07;100474.69;106467;1254;69024;-70
2023/08/04 10:07:26;;;;;;;3.00;0.90;;;;;;;22.82;58.76;100477.19;106242;1254;71466;-71
2023/08/04 10:09:53;;;;;;;3.30;0.90;;;;;;;22.99;59.21;100480.80;106344;1257;61395;-70
2023/08/04 10:12:20;;;;;;;5.50;0.90;;;;;;;23.09;57.97;100483.74;106042;1255;61617;-69
2023/08/04 10:14:47;;;;;;;3.10;0.90;;;;;;;23.04;57.35;100487.19;106302;1254;73424;-71
2023/08/04 10:17:14;;;;;;;4.40;1.10;;;;;;;23.03;56.83;100493.34;106380;1254;69861;-70
2023/08/04 10:19:41;;;;;;;2.20;0.90;;;;;;;22.84;56.94;100488.52;106307;1254;72391;-71
2023/08/04 10:22:11;;;;;;;1.80;0.70;;;;;;;22.70;57.73;100490.75;106369;1254;61300;-70
2023/08/04 10:24:41;;;;;;;2.90;1.10;;;;;;;22.57;58.68;100484.40;106192;1254;61251;-70
2023/08/04 10:27:19;;;;;;;2.70;0.90;;;;;;;22.45;59.48;100485.33;106281;1257;73198;-70
2023/08/04 10:30:02;;;;;;;3.10;1.10;;;;;;;22.33;59.46;100490.05;106275;1254;70204;-69
2023/08/04 10:32:36;;;;;;;2.40;0.90;;;;;;;22.13;59.93;100498.17;106484;1254;72751;-70
2023/08/04 10:35:18;;;;;;;3.10;0.90;;;;;;;22.06;60.34;100492.71;106478;1254;61240;-71
2023/08/04 10:37:50;;;;;;;3.10;0.90;;;;;;;22.12;60.36;100491.42;106356;1254;61759;-69
2023/08/04 10:40:28;;;;;;;2.90;1.00;;;;;;;22.10;60.09;100492.20;106162;1254;73766;-70
2023/08/04 10:43:02;;;;;;;4.90;1.20;;;;;;;22.04;61.00;100493.27;106304;1253;70108;-69
2023/08/04 10:46:02;;;;;;;2.50;0.80;;;;;;;21.92;61.85;100499.77;106311;1254;71801;-69
2023/08/04 10:48:29;;;;;;;2.60;0.80;;;;;;;21.76;63.96;100504.73;106667;1253;61320;-69
2023/08/04 10:50:56;;;;;;;3.10;0.80;;;;;;;21.49;64.74;100509.48;106220;1254;61841;-69
2023/08/04 10:53:22;;;;;;;2.60;0.80;;;;;;;21.30;65.30;100510.27;107562;1256;73437;-70
2023/08/04 10:55:57;;;;;;;3.50;1.00;;;;;;;21.15;65.98;100514.11;106816;1253;70659;-70
2023/08/04 10:58:26;;;;;;;2.20;0.80;;;;;;;21.09;67.18;100515.52;106709;1252;71546;-69
2023/08/04 11:00:54;;;;;;;2.90;1.00;;;;;;;21.15;67.73;100516.23;106751;1256;61240;-70
2023/08/04 11:03:26;;;;;;;2.20;0.80;;;;;;;21.27;67.25;100520.55;106296;1254;61343;-70
2023/08/04 11:05:53;;;;;;;2.20;0.90;;;;;;;21.43;66.85;100515.73;106534;1254;73899;-71
2023/08/04 11:08:22;;;;;;;3.00;0.90;;;;;;;21.67;67.04;100513.28;106323;1254;70431;-69
2023/08/04 11:10:54;;;;;;;3.80;1.30;;;;;;;21.95;66.48;100515.63;106508;1254;72760;-71
2023/08/04 11:13:23;;;;;;;3.70;0.80;;;;;;;22.18;65.02;100512.86;106536;1254;61373;-69